sensor_id;sensor_type;location;lat;lon;timestamp;pressure;altitude;pressure_sealevel;temperature;humidity
11124;BME280;5616;42.692;23.312;2024-01-25T00:01:30;95875.63;;;5.11;64.10
11124;BME280;5616;42.692;23.312;2024-01-25T00:03:56;95869.41;;;5.14;61.92
11124;BME280;5616;42.692;23.312;2024-01-25T00:06:21;95865.28;;;5.13;64.25
11124;BME280;5616;42.692;23.312;2024-01-25T00:08:47;95860.00;;;5.14;64.15
11124;BME280;5616;42.692;23.312;2024-01-25T00:11:13;95845.16;;;5.18;64.26
11124;BME280;5616;42.692;23.312;2024-01-25T00:13:38;95842.31;;;5.21;63.24
11124;BME280;5616;42.692;23.312;2024-01-25T00:16:04;95819.38;;;5.21;61.99
11124;BME280;5616;42.692;23.312;2024-01-25T00:18:30;95799.72;;;5.21;61.35
11124;BME280;5616;42.692;23.312;2024-01-25T00:20:56;95786.03;;;5.22;62.15
11124;BME280;5616;42.692;23.312;2024-01-25T00:23:21;95773.13;;;5.24;62.71
11124;BME280;5616;42.692;23.312;2024-01-25T00:25:47;95771.53;;;5.23;61.72
11124;BME280;5616;42.692;23.312;2024-01-25T00:28:13;95764.34;;;5.26;60.84
11124;BME280;5616;42.692;23.312;2024-01-25T00:30:39;95774.84;;;5.31;60.79
11124;BME280;5616;42.692;23.312;2024-01-25T00:33:04;95786.34;;;5.35;62.03
11124;BME280;5616;42.692;23.312;2024-01-25T00:35:30;95781.69;;;5.39;60.48
11124;BME280;5616;42.692;23.312;2024-01-25T00:37:56;95782.94;;;5.43;60.94
11124;BME280;5616;42.692;23.312;2024-01-25T00:40:22;95774.00;;;5.47;61.40
11124;BME280;5616;42.692;23.312;2024-01-25T00:42:47;95767.31;;;5.46;61.81
11124;BME280;5616;42.692;23.312;2024-01-25T00:45:20;95764.91;;;5.44;60.46
11124;BME280;5616;42.692;23.312;2024-01-25T00:47:46;95761.75;;;5.42;61.04
11124;BME280;5616;42.692;23.312;2024-01-25T00:50:12;95758.41;;;5.42;59.92
11124;BME280;5616;42.692;23.312;2024-01-25T00:52:38;95752.50;;;5.41;60.02
11124;BME280;5616;42.692;23.312;2024-01-25T00:55:04;95762.84;;;5.40;61.50
11124;BME280;5616;42.692;23.312;2024-01-25T00:57:30;95762.69;;;5.41;63.07
11124;BME280;5616;42.692;23.312;2024-01-25T00:59:56;95770.81;;;5.45;60.47
11124;BME280;5616;42.692;23.312;2024-01-25T01:02:22;95773.03;;;5.48;61.48
11124;BME280;5616;42.692;23.312;2024-01-25T01:04:48;95775.25;;;5.51;60.71
11124;BME280;5616;42.692;23.312;2024-01-25T01:07:14;95780.34;;;5.51;60.78
11124;BME280;5616;42.692;23.312;2024-01-25T01:09:40;95780.34;;;5.51;62.26
11124;BME280;5616;42.692;23.312;2024-01-25T01:12:06;95780.03;;;5.54;60.48
11124;BME280;5616;42.692;23.312;2024-01-25T01:14:32;95763.16;;;5.53;60.42
11124;BME280;5616;42.692;23.312;2024-01-25T01:16:58;95752.94;;;5.53;60.62
11124;BME280;5616;42.692;23.312;2024-01-25T01:19:23;95745.28;;;5.53;60.90
11124;BME280;5616;42.692;23.312;2024-01-25T01:21:49;95714.00;;;5.51;59.70
11124;BME280;5616;42.692;23.312;2024-01-25T01:24:14;95717.53;;;5.50;59.66
11124;BME280;5616;42.692;23.312;2024-01-25T01:26:40;95698.56;;;5.53;58.38
11124;BME280;5616;42.692;23.312;2024-01-25T01:29:07;95699.16;;;5.55;60.10
11124;BME280;5616;42.692;23.312;2024-01-25T01:31:33;95697.72;;;5.60;59.61
11124;BME280;5616;42.692;23.312;2024-01-25T01:33:59;95712.69;;;5.63;59.52
11124;BME280;5616;42.692;23.312;2024-01-25T01:36:24;95708.03;;;5.67;59.31
11124;BME280;5616;42.692;23.312;2024-01-25T01:38:49;95698.28;;;5.70;60.39
11124;BME280;5616;42.692;23.312;2024-01-25T01:41:15;95696.03;;;5.75;59.90
11124;BME280;5616;42.692;23.312;2024-01-25T01:43:41;95702.06;;;5.82;59.75
11124;BME280;5616;42.692;23.312;2024-01-25T01:46:11;95695.00;;;5.84;59.87
11124;BME280;5616;42.692;23.312;2024-01-25T01:48:38;95694.69;;;5.87;59.61
11124;BME280;5616;42.692;23.312;2024-01-25T01:51:04;95693.59;;;5.90;59.02
11124;BME280;5616;42.692;23.312;2024-01-25T01:53:30;95691.66;;;5.92;59.63
11124;BME280;5616;42.692;23.312;2024-01-25T01:55:57;95695.63;;;5.95;60.45
11124;BME280;5616;42.692;23.312;2024-01-25T01:58:24;95694.66;;;5.96;59.76
11124;BME280;5616;42.692;23.312;2024-01-25T02:00:50;95692.44;;;5.93;59.91
11124;BME280;5616;42.692;23.312;2024-01-25T02:03:16;95688.28;;;5.91;60.46
11124;BME280;5616;42.692;23.312;2024-01-25T02:05:41;95673.16;;;5.90;60.67
11124;BME280;5616;42.692;23.312;2024-01-25T02:08:07;95675.88;;;5.88;61.07
11124;BME280;5616;42.692;23.312;2024-01-25T02:10:34;95677.81;;;5.86;60.00
11124;BME280;5616;42.692;23.312;2024-01-25T02:12:59;95670.44;;;5.83;60.70
11124;BME280;5616;42.692;23.312;2024-01-25T02:15:25;95671.44;;;5.82;61.27
11124;BME280;5616;42.692;23.312;2024-01-25T02:17:50;95678.28;;;5.82;61.20
11124;BME280;5616;42.692;23.312;2024-01-25T02:20:18;95683.19;;;5.83;62.52
11124;BME280;5616;42.692;23.312;2024-01-25T02:22:43;95679.22;;;5.89;62.06
11124;BME280;5616;42.692;23.312;2024-01-25T02:25:09;95673.16;;;5.90;61.56
11124;BME280;5616;42.692;23.312;2024-01-25T02:27:34;95675.53;;;5.91;60.54
11124;BME280;5616;42.692;23.312;2024-01-25T02:30:05;95674.72;;;5.91;61.18
11124;BME280;5616;42.692;23.312;2024-01-25T02:32:31;95665.66;;;5.88;61.12
11124;BME280;5616;42.692;23.312;2024-01-25T02:34:56;95668.38;;;5.87;60.83
11124;BME280;5616;42.692;23.312;2024-01-25T02:37:22;95665.97;;;5.85;60.83
11124;BME280;5616;42.692;23.312;2024-01-25T02:39:47;95661.22;;;5.82;60.33
11124;BME280;5616;42.692;23.312;2024-01-25T02:42:13;95657.91;;;5.74;60.78
11124;BME280;5616;42.692;23.312;2024-01-25T02:44:39;95644.31;;;5.81;62.41
11124;BME280;5616;42.692;23.312;2024-01-25T02:47:05;95645.56;;;5.85;61.29
11124;BME280;5616;42.692;23.312;2024-01-25T02:49:30;95637.22;;;5.91;62.57
11124;BME280;5616;42.692;23.312;2024-01-25T02:51:56;95639.78;;;5.91;59.81
11124;BME280;5616;42.692;23.312;2024-01-25T02:54:21;95638.78;;;6.01;62.05
11124;BME280;5616;42.692;23.312;2024-01-25T02:56:46;95640.28;;;6.10;62.01
11124;BME280;5616;42.692;23.312;2024-01-25T02:59:12;95641.81;;;6.19;61.79
11124;BME280;5616;42.692;23.312;2024-01-25T03:01:41;95644.28;;;6.27;60.77
11124;BME280;5616;42.692;23.312;2024-01-25T03:04:07;95648.81;;;6.39;61.30
11124;BME280;5616;42.692;23.312;2024-01-25T03:06:33;95651.09;;;6.49;61.15
11124;BME280;5616;42.692;23.312;2024-01-25T03:08:58;95644.00;;;6.59;62.62
11124;BME280;5616;42.692;23.312;2024-01-25T03:11:24;95654.41;;;6.72;59.29
11124;BME280;5616;42.692;23.312;2024-01-25T03:13:49;95645.50;;;6.83;61.98
11124;BME280;5616;42.692;23.312;2024-01-25T03:16:15;95643.31;;;6.95;60.87
11124;BME280;5616;42.692;23.312;2024-01-25T03:18:40;95643.22;;;7.03;60.10
11124;BME280;5616;42.692;23.312;2024-01-25T03:21:06;95637.03;;;7.12;60.31
11124;BME280;5616;42.692;23.312;2024-01-25T03:23:31;95631.44;;;7.23;60.59
11124;BME280;5616;42.692;23.312;2024-01-25T03:25:56;95629.84;;;7.22;59.39
11124;BME280;5616;42.692;23.312;2024-01-25T03:28:22;95631.94;;;7.33;59.12
11124;BME280;5616;42.692;23.312;2024-01-25T03:30:48;95631.00;;;7.34;58.47
11124;BME280;5616;42.692;23.312;2024-01-25T03:33:13;95641.13;;;7.42;59.65
11124;BME280;5616;42.692;23.312;2024-01-25T03:35:38;95650.63;;;7.48;59.73
11124;BME280;5616;42.692;23.312;2024-01-25T03:38:04;95630.22;;;7.55;59.58
11124;BME280;5616;42.692;23.312;2024-01-25T03:40:30;95616.50;;;7.62;60.17
11124;BME280;5616;42.692;23.312;2024-01-25T03:42:55;95603.97;;;7.67;58.49
11124;BME280;5616;42.692;23.312;2024-01-25T03:45:21;95603.66;;;7.77;60.33
11124;BME280;5616;42.692;23.312;2024-01-25T03:47:46;95607.28;;;7.82;59.08
11124;BME280;5616;42.692;23.312;2024-01-25T03:50:12;95611.59;;;7.82;58.71
11124;BME280;5616;42.692;23.312;2024-01-25T03:52:37;95603.72;;;7.83;58.09
11124;BME280;5616;42.692;23.312;2024-01-25T03:55:03;95605.69;;;7.81;56.54
11124;BME280;5616;42.692;23.312;2024-01-25T03:57:29;95593.25;;;7.78;56.70
11124;BME280;5616;42.692;23.312;2024-01-25T03:59:55;95575.91;;;7.80;55.91
11124;BME280;5616;42.692;23.312;2024-01-25T04:02:20;95595.06;;;7.84;55.67
11124;BME280;5616;42.692;23.312;2024-01-25T04:04:46;95586.41;;;7.85;56.38
11124;BME280;5616;42.692;23.312;2024-01-25T04:07:11;95586.41;;;7.85;56.34
11124;BME280;5616;42.692;23.312;2024-01-25T04:09:37;95582.50;;;7.89;57.61
11124;BME280;5616;42.692;23.312;2024-01-25T04:12:03;95580.97;;;7.95;58.12
11124;BME280;5616;42.692;23.312;2024-01-25T04:14:28;95578.22;;;7.97;57.82
11124;BME280;5616;42.692;23.312;2024-01-25T04:16:54;95583.16;;;7.98;57.34
11124;BME280;5616;42.692;23.312;2024-01-25T04:19:19;95588.47;;;7.97;57.37
11124;BME280;5616;42.692;23.312;2024-01-25T04:21:45;95580.97;;;7.95;55.82
11124;BME280;5616;42.692;23.312;2024-01-25T04:24:10;95586.88;;;7.96;57.02
11124;BME280;5616;42.692;23.312;2024-01-25T04:26:36;95582.72;;;7.95;56.69
11124;BME280;5616;42.692;23.312;2024-01-25T04:29:01;95587.00;;;7.87;56.75
11124;BME280;5616;42.692;23.312;2024-01-25T04:31:26;95588.34;;;7.83;56.63
11124;BME280;5616;42.692;23.312;2024-01-25T04:33:52;95585.19;;;7.81;57.76
11124;BME280;5616;42.692;23.312;2024-01-25T04:36:17;95585.31;;;7.73;58.35
11124;BME280;5616;42.692;23.312;2024-01-25T04:38:43;95587.38;;;7.63;57.37
11124;BME280;5616;42.692;23.312;2024-01-25T04:41:08;95600.94;;;7.57;56.90
11124;BME280;5616;42.692;23.312;2024-01-25T04:43:37;95609.69;;;7.48;57.47
11124;BME280;5616;42.692;23.312;2024-01-25T04:46:02;95609.97;;;7.38;57.07
11124;BME280;5616;42.692;23.312;2024-01-25T04:48:29;95620.16;;;7.32;58.09
11124;BME280;5616;42.692;23.312;2024-01-25T04:50:56;95615.22;;;7.16;55.90
11124;BME280;5616;42.692;23.312;2024-01-25T04:53:22;95621.41;;;7.07;56.62
11124;BME280;5616;42.692;23.312;2024-01-25T04:55:47;95617.28;;;7.06;57.31
11124;BME280;5616;42.692;23.312;2024-01-25T04:58:13;95618.84;;;7.07;56.95
11124;BME280;5616;42.692;23.312;2024-01-25T05:00:38;95616.03;;;7.02;58.45
11124;BME280;5616;42.692;23.312;2024-01-25T05:03:05;95626.28;;;7.02;58.27
11124;BME280;5616;42.692;23.312;2024-01-25T05:05:30;95648.84;;;6.98;57.83
11124;BME280;5616;42.692;23.312;2024-01-25T05:07:56;95635.88;;;7.00;57.44
11124;BME280;5616;42.692;23.312;2024-01-25T05:10:21;95648.06;;;6.98;58.28
11124;BME280;5616;42.692;23.312;2024-01-25T05:12:48;95646.09;;;7.00;58.14
11124;BME280;5616;42.692;23.312;2024-01-25T05:15:14;95655.28;;;6.94;56.52
11124;BME280;5616;42.692;23.312;2024-01-25T05:17:39;95662.16;;;6.94;56.81
11124;BME280;5616;42.692;23.312;2024-01-25T05:20:06;95665.00;;;6.99;57.70
11124;BME280;5616;42.692;23.312;2024-01-25T05:22:31;95681.59;;;7.03;56.98
11124;BME280;5616;42.692;23.312;2024-01-25T05:24:57;95687.91;;;7.07;56.80
11124;BME280;5616;42.692;23.312;2024-01-25T05:27:22;95680.25;;;7.07;56.52
11124;BME280;5616;42.692;23.312;2024-01-25T05:29:49;95678.91;;;7.11;57.39
11124;BME280;5616;42.692;23.312;2024-01-25T05:32:14;95682.91;;;7.13;56.26
11124;BME280;5616;42.692;23.312;2024-01-25T05:34:40;95691.97;;;7.16;57.44
11124;BME280;5616;42.692;23.312;2024-01-25T05:37:05;95689.78;;;7.13;56.53
11124;BME280;5616;42.692;23.312;2024-01-25T05:39:31;95675.47;;;7.18;57.47
11124;BME280;5616;42.692;23.312;2024-01-25T05:41:56;95684.16;;;7.17;57.05
11124;BME280;5616;42.692;23.312;2024-01-25T05:44:22;95700.25;;;7.18;54.88
11124;BME280;5616;42.692;23.312;2024-01-25T05:46:47;95700.00;;;7.13;54.84
11124;BME280;5616;42.692;23.312;2024-01-25T05:49:12;95698.34;;;7.20;56.19
11124;BME280;5616;42.692;23.312;2024-01-25T05:51:38;95702.38;;;7.29;55.17
11124;BME280;5616;42.692;23.312;2024-01-25T05:54:03;95714.84;;;7.32;57.51
11124;BME280;5616;42.692;23.312;2024-01-25T05:56:29;95711.13;;;7.34;54.50
11124;BME280;5616;42.692;23.312;2024-01-25T05:58:55;95701.69;;;7.35;53.93
11124;BME280;5616;42.692;23.312;2024-01-25T06:01:20;95700.09;;;7.34;53.63
11124;BME280;5616;42.692;23.312;2024-01-25T06:03:46;95712.72;;;7.35;54.00
11124;BME280;5616;42.692;23.312;2024-01-25T06:06:11;95714.47;;;7.35;55.18
11124;BME280;5616;42.692;23.312;2024-01-25T06:08:36;95702.56;;;7.42;55.73
11124;BME280;5616;42.692;23.312;2024-01-25T06:11:02;95715.59;;;7.47;55.61
11124;BME280;5616;42.692;23.312;2024-01-25T06:13:28;95710.47;;;7.47;53.55
11124;BME280;5616;42.692;23.312;2024-01-25T06:15:53;95714.28;;;7.51;55.57
11124;BME280;5616;42.692;23.312;2024-01-25T06:18:19;95720.03;;;7.53;56.13
11124;BME280;5616;42.692;23.312;2024-01-25T06:20:44;95729.91;;;7.56;56.80
11124;BME280;5616;42.692;23.312;2024-01-25T06:23:09;95723.03;;;7.57;57.46
11124;BME280;5616;42.692;23.312;2024-01-25T06:25:35;95727.94;;;7.58;57.81
11124;BME280;5616;42.692;23.312;2024-01-25T06:28:01;95723.97;;;7.56;56.67
11124;BME280;5616;42.692;23.312;2024-01-25T06:30:27;95730.63;;;7.50;56.44
11124;BME280;5616;42.692;23.312;2024-01-25T06:32:53;95736.78;;;7.41;56.43
11124;BME280;5616;42.692;23.312;2024-01-25T06:35:18;95742.34;;;7.45;56.22
11124;BME280;5616;42.692;23.312;2024-01-25T06:37:44;95751.00;;;7.44;57.04
11124;BME280;5616;42.692;23.312;2024-01-25T06:40:10;95737.44;;;7.43;57.24
11124;BME280;5616;42.692;23.312;2024-01-25T06:42:35;95721.44;;;7.41;56.67
11124;BME280;5616;42.692;23.312;2024-01-25T06:45:01;95717.91;;;7.42;57.40
11124;BME280;5616;42.692;23.312;2024-01-25T06:47:26;95726.19;;;7.44;57.23
11124;BME280;5616;42.692;23.312;2024-01-25T06:49:51;95727.53;;;7.40;56.48
11124;BME280;5616;42.692;23.312;2024-01-25T06:52:20;95739.44;;;7.33;56.65
11124;BME280;5616;42.692;23.312;2024-01-25T06:54:46;95728.41;;;7.32;58.76
11124;BME280;5616;42.692;23.312;2024-01-25T06:57:11;95737.50;;;7.35;55.98
11124;BME280;5616;42.692;23.312;2024-01-25T06:59:37;95738.38;;;7.42;58.27
11124;BME280;5616;42.692;23.312;2024-01-25T07:02:02;95733.50;;;7.47;59.43
11124;BME280;5616;42.692;23.312;2024-01-25T07:04:29;95731.38;;;7.51;55.92
11124;BME280;5616;42.692;23.312;2024-01-25T07:06:55;95716.59;;;7.46;55.95
11124;BME280;5616;42.692;23.312;2024-01-25T07:09:20;95719.59;;;7.50;55.91
11124;BME280;5616;42.692;23.312;2024-01-25T07:11:46;95709.78;;;7.53;56.28
11124;BME280;5616;42.692;23.312;2024-01-25T07:14:12;95705.53;;;7.60;54.76
11124;BME280;5616;42.692;23.312;2024-01-25T07:16:37;95701.75;;;7.56;54.79
11124;BME280;5616;42.692;23.312;2024-01-25T07:19:03;95679.50;;;7.57;54.65
11124;BME280;5616;42.692;23.312;2024-01-25T07:21:29;95688.22;;;7.62;54.52
11124;BME280;5616;42.692;23.312;2024-01-25T07:24:02;95701.72;;;7.71;55.76
11124;BME280;5616;42.692;23.312;2024-01-25T07:26:28;95712.03;;;7.77;54.39
11124;BME280;5616;42.692;23.312;2024-01-25T07:28:53;95710.78;;;7.73;54.96
11124;BME280;5616;42.692;23.312;2024-01-25T07:31:24;95701.63;;;7.64;55.31
11124;BME280;5616;42.692;23.312;2024-01-25T07:33:50;95711.25;;;7.62;54.31
11124;BME280;5616;42.692;23.312;2024-01-25T07:36:17;95703.56;;;7.62;55.08
11124;BME280;5616;42.692;23.312;2024-01-25T07:38:44;95695.78;;;7.70;55.52
11124;BME280;5616;42.692;23.312;2024-01-25T07:41:09;95700.19;;;7.76;55.21
11124;BME280;5616;42.692;23.312;2024-01-25T07:43:35;95698.63;;;7.75;53.84
11124;BME280;5616;42.692;23.312;2024-01-25T07:46:00;95721.91;;;7.80;54.08
11124;BME280;5616;42.692;23.312;2024-01-25T07:48:26;95712.03;;;7.77;53.62
11124;BME280;5616;42.692;23.312;2024-01-25T07:50:51;95728.13;;;7.71;53.58
11124;BME280;5616;42.692;23.312;2024-01-25T07:53:16;95733.31;;;7.78;55.08
11124;BME280;5616;42.692;23.312;2024-01-25T07:55:43;95729.34;;;7.75;53.63
11124;BME280;5616;42.692;23.312;2024-01-25T07:58:08;95737.13;;;7.67;53.44
11124;BME280;5616;42.692;23.312;2024-01-25T08:00:33;95738.44;;;7.78;56.41
11124;BME280;5616;42.692;23.312;2024-01-25T08:02:59;95736.91;;;7.83;55.27
11124;BME280;5616;42.692;23.312;2024-01-25T08:05:25;95738.94;;;7.88;55.27
11124;BME280;5616;42.692;23.312;2024-01-25T08:07:50;95734.59;;;7.88;53.36
11124;BME280;5616;42.692;23.312;2024-01-25T08:10:15;95730.41;;;7.66;53.89
11124;BME280;5616;42.692;23.312;2024-01-25T08:12:41;95726.88;;;7.67;54.18
11124;BME280;5616;42.692;23.312;2024-01-25T08:15:10;95730.03;;;7.69;53.79
11124;BME280;5616;42.692;23.312;2024-01-25T08:17:36;95736.31;;;7.81;54.27
11124;BME280;5616;42.692;23.312;2024-01-25T08:20:02;95734.53;;;7.82;52.76
11124;BME280;5616;42.692;23.312;2024-01-25T08:22:27;95727.78;;;7.96;52.95
11124;BME280;5616;42.692;23.312;2024-01-25T08:24:53;95737.66;;;7.99;52.13
11124;BME280;5616;42.692;23.312;2024-01-25T08:27:19;95722.78;;;8.09;52.24
11124;BME280;5616;42.692;23.312;2024-01-25T08:29:45;95723.66;;;8.16;51.71
11124;BME280;5616;42.692;23.312;2024-01-25T08:32:10;95730.84;;;8.27;53.70
11124;BME280;5616;42.692;23.312;2024-01-25T08:34:36;95722.47;;;8.33;51.32
11124;BME280;5616;42.692;23.312;2024-01-25T08:37:01;95727.47;;;8.41;52.81
11124;BME280;5616;42.692;23.312;2024-01-25T08:39:26;95733.19;;;8.43;50.84
11124;BME280;5616;42.692;23.312;2024-01-25T08:41:52;95737.59;;;8.49;50.70
11124;BME280;5616;42.692;23.312;2024-01-25T08:44:18;95742.13;;;8.47;50.75
11124;BME280;5616;42.692;23.312;2024-01-25T08:46:44;95741.16;;;8.48;49.94
11124;BME280;5616;42.692;23.312;2024-01-25T08:49:09;95740.41;;;8.54;51.42
11124;BME280;5616;42.692;23.312;2024-01-25T08:51:38;95731.75;;;8.55;49.71
11124;BME280;5616;42.692;23.312;2024-01-25T08:54:03;95727.31;;;8.49;50.53
11124;BME280;5616;42.692;23.312;2024-01-25T08:56:29;95743.56;;;8.56;52.48
11124;BME280;5616;42.692;23.312;2024-01-25T08:58:55;95747.97;;;8.62;50.30
11124;BME280;5616;42.692;23.312;2024-01-25T09:01:20;95734.19;;;8.63;50.42
11124;BME280;5616;42.692;23.312;2024-01-25T09:03:46;95733.69;;;8.53;50.54
11124;BME280;5616;42.692;23.312;2024-01-25T09:06:12;95746.41;;;8.40;52.02
11124;BME280;5616;42.692;23.312;2024-01-25T09:08:37;95743.72;;;8.48;51.71
11124;BME280;5616;42.692;23.312;2024-01-25T09:11:03;95740.72;;;8.45;51.31
11124;BME280;5616;42.692;23.312;2024-01-25T09:13:29;95749.31;;;8.37;52.16
11124;BME280;5616;42.692;23.312;2024-01-25T09:15:55;95751.91;;;8.37;53.03
11124;BME280;5616;42.692;23.312;2024-01-25T09:18:21;95757.19;;;8.35;53.34
11124;BME280;5616;42.692;23.312;2024-01-25T09:20:46;95753.13;;;8.41;51.58
11124;BME280;5616;42.692;23.312;2024-01-25T09:23:14;95757.50;;;8.47;50.07
11124;BME280;5616;42.692;23.312;2024-01-25T09:25:44;95752.47;;;8.60;51.75
11124;BME280;5616;42.692;23.312;2024-01-25T09:28:10;95756.31;;;8.71;51.00
11124;BME280;5616;42.692;23.312;2024-01-25T09:30:41;95756.72;;;8.74;50.94
11124;BME280;5616;42.692;23.312;2024-01-25T09:33:07;95741.84;;;8.84;50.96
11124;BME280;5616;42.692;23.312;2024-01-25T09:35:32;95743.88;;;8.96;51.55
11124;BME280;5616;42.692;23.312;2024-01-25T09:37:58;95749.84;;;9.03;52.19
11124;BME280;5616;42.692;23.312;2024-01-25T09:40:23;95738.44;;;9.12;51.74
11124;BME280;5616;42.692;23.312;2024-01-25T09:42:51;95738.06;;;9.15;51.07
11124;BME280;5616;42.692;23.312;2024-01-25T09:45:18;95729.00;;;9.19;50.83
11124;BME280;5616;42.692;23.312;2024-01-25T09:47:46;95730.63;;;9.20;51.45
11124;BME280;5616;42.692;23.312;2024-01-25T09:50:13;95723.50;;;9.22;51.69
11124;BME280;5616;42.692;23.312;2024-01-25T09:52:44;95716.41;;;9.24;52.29
11124;BME280;5616;42.692;23.312;2024-01-25T09:55:14;95709.31;;;9.26;51.36
11124;BME280;5616;42.692;23.312;2024-01-25T09:57:45;95702.22;;;9.28;51.96
11124;BME280;5616;42.692;23.312;2024-01-25T10:00:14;95702.22;;;9.28;51.25
11124;BME280;5616;42.692;23.312;2024-01-25T10:02:40;95698.88;;;9.27;51.29
11124;BME280;5616;42.692;23.312;2024-01-25T10:05:06;95709.69;;;9.23;50.42
11124;BME280;5616;42.692;23.312;2024-01-25T10:07:42;95680.47;;;9.24;49.96
11124;BME280;5616;42.692;23.312;2024-01-25T10:10:09;95693.09;;;9.25;50.70
11124;BME280;5616;42.692;23.312;2024-01-25T10:12:36;95673.38;;;9.26;50.97
11124;BME280;5616;42.692;23.312;2024-01-25T10:15:03;95678.72;;;9.31;50.74
11124;BME280;5616;42.692;23.312;2024-01-25T10:17:29;95677.38;;;9.35;48.65
11124;BME280;5616;42.692;23.312;2024-01-25T10:19:55;95672.63;;;9.32;48.99
11124;BME280;5616;42.692;23.312;2024-01-25T10:22:21;95671.63;;;9.33;49.46
11124;BME280;5616;42.692;23.312;2024-01-25T10:24:46;95671.63;;;9.33;49.59
11124;BME280;5616;42.692;23.312;2024-01-25T10:27:15;95671.28;;;9.43;51.58
11124;BME280;5616;42.692;23.312;2024-01-25T10:29:41;95671.53;;;9.54;50.61
11124;BME280;5616;42.692;23.312;2024-01-25T10:32:08;95680.22;;;9.60;49.35
11124;BME280;5616;42.692;23.312;2024-01-25T10:34:37;95681.41;;;9.57;50.65
11124;BME280;5616;42.692;23.312;2024-01-25T10:37:06;95673.91;;;9.62;50.53
11124;BME280;5616;42.692;23.312;2024-01-25T10:39:33;95664.25;;;9.64;49.69
11124;BME280;5616;42.692;23.312;2024-01-25T10:41:59;95676.69;;;9.67;49.46
11124;BME280;5616;42.692;23.312;2024-01-25T10:44:26;95670.38;;;9.70;49.74
11124;BME280;5616;42.692;23.312;2024-01-25T10:46:52;95657.75;;;9.75;48.76
11124;BME280;5616;42.692;23.312;2024-01-25T10:49:19;95656.78;;;9.76;49.91
11124;BME280;5616;42.692;23.312;2024-01-25T10:51:45;95659.72;;;9.73;50.36
11124;BME280;5616;42.692;23.312;2024-01-25T10:54:12;95648.41;;;9.54;48.68
11124;BME280;5616;42.692;23.312;2024-01-25T10:56:42;95649.00;;;9.50;48.61
11124;BME280;5616;42.692;23.312;2024-01-25T10:59:08;95650.59;;;9.51;50.37
11124;BME280;5616;42.692;23.312;2024-01-25T11:01:34;95649.97;;;9.55;50.84
11124;BME280;5616;42.692;23.312;2024-01-25T11:04:00;95650.22;;;9.60;50.46
11124;BME280;5616;42.692;23.312;2024-01-25T11:06:27;95643.28;;;9.54;50.05
11124;BME280;5616;42.692;23.312;2024-01-25T11:09:06;95631.19;;;9.55;49.25
11124;BME280;5616;42.692;23.312;2024-01-25T11:11:32;95624.91;;;9.57;49.16
11124;BME280;5616;42.692;23.312;2024-01-25T11:13:58;95619.97;;;9.62;51.15
11124;BME280;5616;42.692;23.312;2024-01-25T11:16:31;95602.78;;;9.69;50.06
11124;BME280;5616;42.692;23.312;2024-01-25T11:18:59;95595.88;;;9.76;51.16
11124;BME280;5616;42.692;23.312;2024-01-25T11:21:49;95590.56;;;9.71;48.89
11124;BME280;5616;42.692;23.312;2024-01-25T11:24:22;95583.03;;;9.76;48.82
11124;BME280;5616;42.692;23.312;2024-01-25T11:26:49;95587.00;;;9.72;48.96
11124;BME280;5616;42.692;23.312;2024-01-25T11:29:19;95589.34;;;9.67;47.21
11124;BME280;5616;42.692;23.312;2024-01-25T11:31:48;95588.94;;;9.51;47.00
11124;BME280;5616;42.692;23.312;2024-01-25T11:34:14;95583.75;;;9.44;46.36
11124;BME280;5616;42.692;23.312;2024-01-25T11:36:40;95583.19;;;9.42;48.09
11124;BME280;5616;42.692;23.312;2024-01-25T11:39:08;95577.44;;;9.40;47.78
11124;BME280;5616;42.692;23.312;2024-01-25T11:41:35;95590.06;;;9.35;47.26
11124;BME280;5616;42.692;23.312;2024-01-25T11:44:01;95597.75;;;9.28;49.55
11124;BME280;5616;42.692;23.312;2024-01-25T11:46:28;95576.16;;;9.10;48.19
11124;BME280;5616;42.692;23.312;2024-01-25T11:48:55;95582.50;;;9.14;49.81
11124;BME280;5616;42.692;23.312;2024-01-25T11:51:20;95589.59;;;9.12;47.39
11124;BME280;5616;42.692;23.312;2024-01-25T11:53:46;95584.47;;;9.12;47.19
11124;BME280;5616;42.692;23.312;2024-01-25T11:56:21;95584.47;;;9.12;48.39
11124;BME280;5616;42.692;23.312;2024-01-25T11:58:48;95568.09;;;9.13;47.20
11124;BME280;5616;42.692;23.312;2024-01-25T12:01:15;95577.78;;;9.17;47.69
11124;BME280;5616;42.692;23.312;2024-01-25T12:03:40;95584.28;;;9.13;46.76
11124;BME280;5616;42.692;23.312;2024-01-25T12:06:06;95595.53;;;9.19;47.88
11124;BME280;5616;42.692;23.312;2024-01-25T12:08:35;95591.56;;;9.10;47.17
11124;BME280;5616;42.692;23.312;2024-01-25T12:11:08;95590.78;;;9.16;48.15
11124;BME280;5616;42.692;23.312;2024-01-25T12:13:35;95582.28;;;9.09;48.02
11124;BME280;5616;42.692;23.312;2024-01-25T12:16:02;95574.19;;;9.12;49.23
11124;BME280;5616;42.692;23.312;2024-01-25T12:18:29;95571.84;;;9.17;49.24
11124;BME280;5616;42.692;23.312;2024-01-25T12:20:58;95564.75;;;9.25;51.08
11124;BME280;5616;42.692;23.312;2024-01-25T12:23:30;95566.34;;;9.26;48.82
11124;BME280;5616;42.692;23.312;2024-01-25T12:25:59;95565.16;;;9.29;49.30
11124;BME280;5616;42.692;23.312;2024-01-25T12:28:26;95569.53;;;9.35;49.49
11124;BME280;5616;42.692;23.312;2024-01-25T12:30:52;95571.13;;;9.36;47.58
11124;BME280;5616;42.692;23.312;2024-01-25T12:33:17;95560.06;;;9.42;47.48
11124;BME280;5616;42.692;23.312;2024-01-25T12:35:43;95562.44;;;9.44;47.68
11124;BME280;5616;42.692;23.312;2024-01-25T12:38:09;95545.06;;;9.39;48.65
11124;BME280;5616;42.692;23.312;2024-01-25T12:40:34;95533.00;;;9.40;48.29
11124;BME280;5616;42.692;23.312;2024-01-25T12:43:00;95524.06;;;9.29;48.26
11124;BME280;5616;42.692;23.312;2024-01-25T12:45:25;95521.09;;;9.19;48.14
11124;BME280;5616;42.692;23.312;2024-01-25T12:47:51;95520.91;;;9.14;49.12
11124;BME280;5616;42.692;23.312;2024-01-25T12:50:16;95509.84;;;9.20;48.67
11124;BME280;5616;42.692;23.312;2024-01-25T12:52:42;95508.28;;;9.25;48.57
11124;BME280;5616;42.692;23.312;2024-01-25T12:55:07;95495.66;;;9.24;47.85
11124;BME280;5616;42.692;23.312;2024-01-25T12:57:33;95496.22;;;9.26;47.22
11124;BME280;5616;42.692;23.312;2024-01-25T12:59:59;95487.78;;;9.39;48.16
11124;BME280;5616;42.692;23.312;2024-01-25T13:02:25;95484.63;;;9.43;47.90
11124;BME280;5616;42.692;23.312;2024-01-25T13:04:50;95498.44;;;9.49;48.05